Saint Marie, Montana
Current Conditions -  °F | °C
As of 2:53 PM on Tuesday 25 Nov 2014 (Local Time) from KGGW Reporting Station
Overcast Overcast  
Wind Chill: -8°   Ceiling: 3200
Heat Index: -1°   Visibility: 10mi
Dew Point: -4°   Wind: 22mph
Humidity: 79%   Direction: 340°NNW
Pressure: 29.9"   Gusts: NA
Location:  48.4°N, 106.55°W
Report Text: KGGW 252153Z AUTO 34019KT 10SM SCT018 BKN032 OVC049 M01/M04 A2990 RMK AO2 PK WND 34031/2110 SLP152 T10061039
Loading
Personal Weather Stations






























Interactive Weather Map New forecast layout! Learn more

10-Day Weather Forecast

Advertisements
Track Severe Weather on mobile